Muzaffargarh Weather



Muzaffargarh's Current Weather

Temprature 14o smoke

smoke

Rain: 0 %

Min Temprature14o
Max Temprature14o
Humidity67
Wind Speed3.1 m/h
Sun Rise07:08:39
Sun Set17:46:44
Current Time: 27-Jan-2020 18:24:39
Lat/Lon: 30.08, 71.19




Muzaffargarh's Geo Location



Muzaffargarh's Weather Forecast

Time Overall Temp Min Temp Max Temp Humidity Wind Speed Rain
27-Jan-2020 (Mon)
20:00:00 overcast clouds 10.470 10.470 13.740 66 4.31 m/h 0 %
23:00:00 scattered clouds 9.070 9.070 11.520 75 3.34 m/h 0 %
28-Jan-2020 (Tue)
02:00:00 clear sky 8.810 8.810 10.450 80 3.71 m/h 0 %
05:00:00 scattered clouds 9.240 9.240 10.060 77 3.52 m/h 0 %
08:00:00 overcast clouds 11.150 11.150 11.150 67 4.67 m/h 0 %
11:00:00 broken clouds 16.810 16.810 16.810 53 5.29 m/h 0 %
14:00:00 scattered clouds 18.750 18.750 18.750 41 5.08 m/h 0 %
17:00:00 few clouds 18.100 18.100 18.100 37 2.7 m/h 0 %
20:00:00 clear sky 13.690 13.690 13.690 49 1.52 m/h 0 %
23:00:00 clear sky 12.360 12.360 12.360 61 1.63 m/h 0 %
29-Jan-2020 (Wed)
02:00:00 clear sky 11.040 11.040 11.040 67 1.44 m/h 0 %
05:00:00 clear sky 10.090 10.090 10.090 71 1.25 m/h 0 %
08:00:00 clear sky 10.630 10.630 10.630 76 1.61 m/h 0 %
11:00:00 clear sky 16.970 16.970 16.970 49 0.97 m/h 0 %
14:00:00 clear sky 20.020 20.020 20.020 36 0.66 m/h 0 %
17:00:00 clear sky 19.440 19.440 19.440 34 0.51 m/h 0 %
20:00:00 clear sky 14.600 14.600 14.600 48 2.3 m/h 0 %
23:00:00 clear sky 12.760 12.760 12.760 58 2.28 m/h 0 %
30-Jan-2020 (Thu)
02:00:00 clear sky 11.500 11.500 11.500 63 1.68 m/h 0 %
05:00:00 clear sky 10.250 10.250 10.250 68 0.94 m/h 0 %
08:00:00 scattered clouds 11.260 11.260 11.260 64 1.67 m/h 0 %
11:00:00 scattered clouds 17.580 17.580 17.580 39 1.74 m/h 0 %
14:00:00 clear sky 20.330 20.330 20.330 30 0.78 m/h 0 %
17:00:00 clear sky 19.420 19.420 19.420 32 1.25 m/h 0 %
20:00:00 clear sky 14.940 14.940 14.940 37 2.61 m/h 0 %
23:00:00 clear sky 12.820 12.820 12.820 38 2.27 m/h 0 %
31-Jan-2020 (Fri)
02:00:00 clear sky 11.680 11.680 11.680 38 1.72 m/h 0 %
05:00:00 clear sky 10.490 10.490 10.490 40 0.61 m/h 0 %
08:00:00 clear sky 11.560 11.560 11.560 41 1.12 m/h 0 %
11:00:00 scattered clouds 18.350 18.350 18.350 31 2.21 m/h 0 %
14:00:00 broken clouds 21.570 21.570 21.570 24 3.35 m/h 0 %
17:00:00 scattered clouds 20.270 20.270 20.270 28 0.97 m/h 0 %
20:00:00 clear sky 15.390 15.390 15.390 34 1.86 m/h 0 %
23:00:00 clear sky 13.180 13.180 13.180 41 1.92 m/h 0 %
01-Feb-2020 (Sat)
02:00:00 clear sky 12.080 12.080 12.080 44 1.81 m/h 0 %
05:00:00 clear sky 11.480 11.480 11.480 45 2.06 m/h 0 %
08:00:00 clear sky 11.990 11.990 11.990 44 1.47 m/h 0 %
11:00:00 clear sky 18.950 18.950 18.950 27 1.91 m/h 0 %
14:00:00 clear sky 21.640 21.640 21.640 21 1.74 m/h 0 %
17:00:00 clear sky 20.470 20.470 20.470 24 1.86 m/h 0 %

Famous Cities (61)